Time,TemperatureF,DewpointF,PressureIn,WindDirection,WindDirectionDegrees,WindSpeedMPH,WindSpeedGustMPH,Humidity,HourlyPrecipIn,Conditions,Clouds,dailyrainin,SoftwareType,DateUTC
2013-04-02 00:04:00,27.5,16.9,30.34,NNE,24,0.0,0.0,64,0.00,,---,0.00,VWS V14.01,2013-04-02 05:04:00,
2013-04-02 00:10:00,27.3,17.1,30.34,NNE,24,0.0,0.0,65,0.00,,---,0.00,VWS V14.01,2013-04-02 05:10:00,
2013-04-02 00:16:00,27.0,17.2,30.34,NNE,24,0.0,0.0,66,0.00,,---,0.00,VWS V14.01,2013-04-02 05:16:00,
2013-04-02 00:22:00,26.8,17.0,30.34,NNE,24,0.0,0.0,66,0.00,,---,0.00,VWS V14.01,2013-04-02 05:22:00,
2013-04-02 00:28:00,26.4,16.6,30.34,NNE,24,0.0,0.0,66,0.00,,---,0.00,VWS V14.01,2013-04-02 05:28:00,
2013-04-02 00:34:00,26.3,17.2,30.34,NNE,24,0.0,0.0,68,0.00,,---,0.00,VWS V14.01,2013-04-02 05:34:00,
2013-04-02 00:40:00,26.3,16.9,30.34,NNE,24,0.0,0.0,67,0.00,,---,0.00,VWS V14.01,2013-04-02 05:40:00,
2013-04-02 00:46:00,26.3,16.9,30.34,NNE,24,0.0,0.0,67,0.00,,---,0.00,VWS V14.01,2013-04-02 05:46:00,
2013-04-02 00:52:00,26.2,16.8,30.34,NNE,24,0.0,0.0,67,0.00,,---,0.00,VWS V14.01,2013-04-02 05:52:00,
2013-04-02 00:58:00,26.2,17.1,30.34,NNE,24,0.0,0.0,68,0.00,,---,0.00,VWS V14.01,2013-04-02 05:58:00,
2013-04-02 01:04:00,26.2,17.1,30.34,NNE,24,0.0,0.0,68,0.00,,---,0.00,VWS V14.01,2013-04-02 06:04:00,
2013-04-02 01:10:00,26.2,17.1,30.33,NNE,24,0.0,0.0,68,0.00,,---,0.00,VWS V14.01,2013-04-02 06:10:00,
2013-04-02 01:17:00,26.0,17.2,30.33,NNE,24,0.0,0.0,69,0.00,,---,0.00,VWS V14.01,2013-04-02 06:17:00,
2013-04-02 01:23:00,25.8,17.4,30.33,NNE,24,0.0,0.0,70,0.00,,---,0.00,VWS V14.01,2013-04-02 06:23:00,
2013-04-02 01:29:00,26.1,18.0,30.34,NNE,24,0.0,0.0,71,0.00,,---,0.00,VWS V14.01,2013-04-02 06:29:00,
2013-04-02 01:35:00,26.4,18.3,30.34,NNE,24,0.0,0.0,71,0.00,,---,0.00,VWS V14.01,2013-04-02 06:35:00,
2013-04-02 01:41:00,26.6,18.5,30.34,NNE,24,0.0,0.0,71,0.00,,---,0.00,VWS V14.01,2013-04-02 06:41:00,
2013-04-02 01:47:00,26.4,18.3,30.34,NNE,24,0.0,0.0,71,0.00,,---,0.00,VWS V14.01,2013-04-02 06:47:00,
2013-04-02 01:53:00,26.0,17.9,30.33,NNE,24,0.0,0.0,71,0.00,,---,0.00,VWS V14.01,2013-04-02 06:53:00,
2013-04-02 01:59:00,25.5,17.4,30.33,NNE,24,0.0,0.0,71,0.00,,---,0.00,VWS V14.01,2013-04-02 06:59:00,
2013-04-02 02:05:00,25.2,17.5,30.33,NNE,24,0.0,0.0,72,0.00,,---,0.00,VWS V14.01,2013-04-02 07:05:00,
2013-04-02 02:11:00,24.9,17.5,30.33,NNE,24,0.0,0.0,73,0.00,,---,0.00,VWS V14.01,2013-04-02 07:11:00,
2013-04-02 02:17:00,25.2,18.1,30.33,NNE,24,0.0,0.0,74,0.00,,---,0.00,VWS V14.01,2013-04-02 07:17:00,
2013-04-02 02:23:00,25.4,18.3,30.33,NNE,24,0.0,0.0,74,0.00,,---,0.00,VWS V14.01,2013-04-02 07:23:00,
2013-04-02 02:29:00,25.2,17.8,30.33,NNE,24,0.0,0.0,73,0.00,,---,0.00,VWS V14.01,2013-04-02 07:29:00,
2013-04-02 02:35:00,24.9,17.8,30.33,NNE,24,0.0,0.0,74,0.00,,---,0.00,VWS V14.01,2013-04-02 07:35:00,
2013-04-02 02:42:00,24.6,17.5,30.33,NNE,24,0.0,0.0,74,0.00,,---,0.00,VWS V14.01,2013-04-02 07:42:00,
2013-04-02 02:48:00,24.3,17.2,30.33,NNE,24,0.0,0.0,74,0.00,,---,0.00,VWS V14.01,2013-04-02 07:48:00,
2013-04-02 02:54:00,24.1,17.0,30.33,NNE,24,0.0,0.0,74,0.00,,---,0.00,VWS V14.01,2013-04-02 07:54:00,
2013-04-02 03:00:00,24.2,17.4,30.32,NNE,24,0.0,0.0,75,0.00,,---,0.00,VWS V14.01,2013-04-02 08:00:00,
2013-04-02 03:06:00,24.3,17.2,30.33,NNE,24,0.0,0.0,74,0.00,,---,0.00,VWS V14.01,2013-04-02 08:06:00,
2013-04-02 03:12:00,24.3,17.5,30.33,NNE,24,0.0,0.0,75,0.00,,---,0.00,VWS V14.01,2013-04-02 08:12:00,
2013-04-02 03:18:00,24.2,17.4,30.33,NNE,24,0.0,0.0,75,0.00,,---,0.00,VWS V14.01,2013-04-02 08:18:00,
2013-04-02 03:25:00,24.3,17.5,30.33,NNE,24,0.0,0.0,75,0.00,,---,0.00,VWS V14.01,2013-04-02 08:25:00,
2013-04-02 03:31:00,24.3,17.5,30.33,NNE,24,0.0,0.0,75,0.00,,---,0.00,VWS V14.01,2013-04-02 08:31:00,
2013-04-02 03:37:00,24.3,17.2,30.33,NNE,24,0.0,0.0,74,0.00,,---,0.00,VWS V14.01,2013-04-02 08:37:00,
2013-04-02 03:43:00,24.7,17.9,30.33,NNE,24,0.0,0.0,75,0.00,,---,0.00,VWS V14.01,2013-04-02 08:43:00,
2013-04-02 03:49:00,25.6,18.8,30.33,NNE,24,2.0,3.0,75,0.00,,---,0.00,VWS V14.01,2013-04-02 08:49:00,
2013-04-02 03:55:00,26.1,18.6,30.33,NNE,24,2.0,3.0,73,0.00,,---,0.00,VWS V14.01,2013-04-02 08:55:00,
2013-04-02 04:01:00,26.2,18.4,30.33,NNE,24,3.0,4.0,72,0.00,,---,0.00,VWS V14.01,2013-04-02 09:01:00,
2013-04-02 04:07:00,26.1,18.3,30.33,NNE,22,3.0,4.0,72,0.00,,---,0.00,VWS V14.01,2013-04-02 09:07:00,
2013-04-02 04:13:00,26.1,18.6,30.34,NNE,22,3.0,4.0,73,0.00,,---,0.00,VWS V14.01,2013-04-02 09:13:00,
2013-04-02 04:19:00,26.0,18.2,30.33,NNE,22,3.0,4.0,72,0.00,,---,0.00,VWS V14.01,2013-04-02 09:19:00,
2013-04-02 04:25:00,25.6,18.2,30.33,NNE,22,1.0,4.0,73,0.00,,---,0.00,VWS V14.01,2013-04-02 09:25:00,
2013-04-02 04:31:00,25.2,18.1,30.34,NNE,22,2.0,4.0,74,0.00,,---,0.00,VWS V14.01,2013-04-02 09:31:00,
2013-04-02 04:38:00,24.9,18.4,30.34,NNE,22,2.0,3.0,76,0.00,,---,0.00,VWS V14.01,2013-04-02 09:38:00,
2013-04-02 04:44:00,24.9,18.7,30.34,NNE,22,1.0,3.0,77,0.00,,---,0.00,VWS V14.01,2013-04-02 09:44:00,
2013-04-02 04:50:00,24.9,18.7,30.34,NNE,22,2.0,3.0,77,0.00,,---,0.00,VWS V14.01,2013-04-02 09:50:00,
2013-04-02 04:56:00,24.8,18.6,30.34,NNE,22,2.0,3.0,77,0.00,,---,0.00,VWS V14.01,2013-04-02 09:56:00,
2013-04-02 05:02:00,24.7,18.5,30.34,NNE,22,2.0,2.0,77,0.00,,---,0.00,VWS V14.01,2013-04-02 10:02:00,
2013-04-02 05:08:00,24.4,18.5,30.34,NNE,22,3.0,4.0,78,0.00,,---,0.00,VWS V14.01,2013-04-02 10:08:00,
2013-04-02 05:14:00,24.4,18.5,30.35,NNE,22,3.0,4.0,78,0.00,,---,0.00,VWS V14.01,2013-04-02 10:14:00,
2013-04-02 05:20:00,24.3,18.4,30.35,NNE,22,3.0,4.0,78,0.00,,---,0.00,VWS V14.01,2013-04-02 10:20:00,
2013-04-02 05:26:00,24.3,18.7,30.35,NNE,22,3.0,4.0,79,0.00,,---,0.00,VWS V14.01,2013-04-02 10:26:00,
2013-04-02 05:35:00,24.5,18.9,30.35,NNE,22,3.0,3.0,79,0.00,,---,0.00,VWS V14.01,2013-04-02 10:35:00,
2013-04-02 05:41:00,24.4,18.8,30.35,NNE,22,1.0,3.0,79,0.00,,---,0.00,VWS V14.01,2013-04-02 10:41:00,
2013-04-02 05:47:00,24.1,18.5,30.35,NNE,22,0.0,3.0,79,0.00,,---,0.00,VWS V14.01,2013-04-02 10:47:00,
2013-04-02 05:53:00,23.8,18.5,30.35,NNE,22,2.0,3.0,80,0.00,,---,0.00,VWS V14.01,2013-04-02 10:53:00,
2013-04-02 05:59:00,23.9,18.9,30.35,NNE,22,3.0,3.0,81,0.00,,---,0.00,VWS V14.01,2013-04-02 10:59:00,
2013-04-02 06:05:00,24.2,19.2,30.35,NNE,22,1.0,3.0,81,0.00,,---,0.00,VWS V14.01,2013-04-02 11:05:00,
2013-04-02 06:11:00,24.3,19.0,30.35,NNE,22,0.0,3.0,80,0.00,,---,0.00,VWS V14.01,2013-04-02 11:11:00,
2013-04-02 06:17:00,24.0,18.7,30.35,NNE,22,0.0,3.0,80,0.00,,---,0.00,VWS V14.01,2013-04-02 11:17:00,
2013-04-02 06:23:00,23.7,18.5,30.35,NNE,22,0.0,3.0,80,0.00,,---,0.00,VWS V14.01,2013-04-02 11:23:00,
2013-04-02 06:29:00,23.6,18.6,30.35,NNE,22,2.0,3.0,81,0.00,,---,0.00,VWS V14.01,2013-04-02 11:29:00,
2013-04-02 06:35:00,23.9,18.9,30.36,NNE,22,1.0,2.0,81,0.00,,---,0.00,VWS V14.01,2013-04-02 11:35:00,
2013-04-02 06:44:00,23.9,18.9,30.36,NNE,22,1.0,2.0,81,0.00,,---,0.00,VWS V14.01,2013-04-02 11:44:00,
2013-04-02 06:50:00,23.9,18.9,30.36,NNE,22,0.0,2.0,81,0.00,,---,0.00,VWS V14.01,2013-04-02 11:50:00,
2013-04-02 06:56:00,24.0,19.0,30.36,NNE,22,2.0,3.0,81,0.00,,---,0.00,VWS V14.01,2013-04-02 11:56:00,
2013-04-02 07:02:00,24.3,19.3,30.36,NNE,22,2.0,3.0,81,0.00,,---,0.00,VWS V14.01,2013-04-02 12:02:00,
2013-04-02 07:08:00,24.4,19.1,30.36,NNE,22,0.0,3.0,80,0.00,,---,0.00,VWS V14.01,2013-04-02 12:08:00,
2013-04-02 07:14:00,24.3,18.7,30.36,NNE,22,0.0,3.0,79,0.00,,---,0.00,VWS V14.01,2013-04-02 12:14:00,
2013-04-02 07:20:00,24.1,18.8,30.36,NNE,22,1.0,3.0,80,0.00,,---,0.00,VWS V14.01,2013-04-02 12:20:00,
2013-04-02 07:26:00,24.4,18.8,30.36,NNE,22,0.0,3.0,79,0.00,,---,0.00,VWS V14.01,2013-04-02 12:26:00,
2013-04-02 07:32:00,24.8,19.2,30.36,NNE,22,0.0,0.0,79,0.00,,---,0.00,VWS V14.01,2013-04-02 12:32:00,
2013-04-02 07:38:00,25.0,19.4,30.36,NNE,22,0.0,2.0,79,0.00,,---,0.00,VWS V14.01,2013-04-02 12:38:00,
2013-04-02 07:44:00,25.3,19.7,30.36,NNE,22,0.0,2.0,79,0.00,,---,0.00,VWS V14.01,2013-04-02 12:44:00,
2013-04-02 07:50:00,25.7,20.1,30.36,NNE,22,0.0,2.0,79,0.00,,---,0.00,VWS V14.01,2013-04-02 12:50:00,
2013-04-02 07:56:00,26.0,20.1,30.36,NNE,22,0.0,2.0,78,0.00,,---,0.00,VWS V14.01,2013-04-02 12:56:00,
2013-04-02 08:02:00,26.5,20.9,30.36,NNE,22,0.0,0.0,79,0.00,,---,0.00,VWS V14.01,2013-04-02 13:02:00,
2013-04-02 08:09:00,27.1,21.5,30.36,NNE,22,0.0,0.0,79,0.00,,---,0.00,VWS V14.01,2013-04-02 13:09:00,
2013-04-02 08:15:00,27.8,21.9,30.36,NNE,22,0.0,0.0,78,0.00,,---,0.00,VWS V14.01,2013-04-02 13:15:00,
2013-04-02 08:23:00,28.6,21.7,30.36,NNE,22,1.0,2.0,75,0.00,,---,0.00,VWS V14.01,2013-04-02 13:23:00,
2013-04-02 08:29:00,29.1,21.9,30.36,NNE,22,0.0,2.0,74,0.00,,---,0.00,VWS V14.01,2013-04-02 13:29:00,
2013-04-02 08:35:00,29.9,23.0,30.36,NNE,22,0.0,0.0,75,0.00,,---,0.00,VWS V14.01,2013-04-02 13:35:00,
2013-04-02 08:41:00,30.8,23.5,30.36,NNE,22,0.0,1.0,74,0.00,,---,0.00,VWS V14.01,2013-04-02 13:41:00,
2013-04-02 08:47:00,31.5,22.9,30.37,NNE,22,2.0,3.0,70,0.00,,---,0.00,VWS V14.01,2013-04-02 13:47:00,
2013-04-02 08:53:00,32.1,22.8,30.37,NNE,22,0.0,3.0,68,0.00,,---,0.00,VWS V14.01,2013-04-02 13:53:00,
2013-04-02 08:59:00,32.8,23.8,30.37,NNE,22,0.0,3.0,69,0.00,,---,0.00,VWS V14.01,2013-04-02 13:59:00,
2013-04-02 09:05:00,33.4,24.7,30.36,NNE,22,0.0,3.0,70,0.00,,---,0.00,VWS V14.01,2013-04-02 14:05:00,
2013-04-02 09:11:00,33.9,24.8,30.37,NNE,22,1.0,4.0,69,0.00,,---,0.00,VWS V14.01,2013-04-02 14:11:00,
2013-04-02 09:17:00,34.4,24.6,30.36,NNE,22,1.0,4.0,67,0.00,,---,0.00,VWS V14.01,2013-04-02 14:17:00,
2013-04-02 09:23:00,34.7,24.1,30.37,NNE,22,0.0,4.0,65,0.00,,---,0.00,VWS V14.01,2013-04-02 14:23:00,
2013-04-02 09:29:00,35.4,23.3,30.37,NNE,22,1.0,4.0,61,0.00,,---,0.00,VWS V14.01,2013-04-02 14:29:00,
2013-04-02 09:36:00,36.1,23.6,30.37,NNE,22,2.0,4.0,60,0.00,,---,0.00,VWS V14.01,2013-04-02 14:36:00,
2013-04-02 09:42:00,36.7,22.9,30.37,NNE,22,0.0,4.0,57,0.00,,---,0.00,VWS V14.01,2013-04-02 14:42:00,
2013-04-02 09:48:00,37.1,22.9,30.36,NNE,21,1.0,4.0,56,0.00,,---,0.00,VWS V14.01,2013-04-02 14:48:00,
2013-04-02 09:54:00,38.1,22.9,30.36,NNE,21,0.0,4.0,54,0.00,,---,0.00,VWS V14.01,2013-04-02 14:54:00,
2013-04-02 10:00:00,39.0,23.8,30.36,NNE,21,0.0,4.0,54,0.00,,---,0.00,VWS V14.01,2013-04-02 15:00:00,
2013-04-02 10:06:00,39.9,22.8,30.36,NNE,21,0.0,2.0,50,0.00,,---,0.00,VWS V14.01,2013-04-02 15:06:00,
2013-04-02 10:12:00,40.2,22.1,30.36,NNE,22,0.0,2.0,48,0.00,,---,0.00,VWS V14.01,2013-04-02 15:12:00,
2013-04-02 10:18:00,40.1,22.5,30.36,NNE,22,1.0,2.0,49,0.00,,---,0.00,VWS V14.01,2013-04-02 15:18:00,
2013-04-02 10:24:00,40.1,22.5,30.36,NNE,22,0.0,2.0,49,0.00,,---,0.00,VWS V14.01,2013-04-02 15:24:00,
2013-04-02 10:37:00,40.9,22.7,30.36,ENE,76,0.0,0.0,48,0.00,,---,0.00,VWS V14.01,2013-04-02 15:37:00,
2013-04-02 10:45:00,41.4,23.7,30.36,ENE,76,0.0,2.0,49,0.00,,---,0.00,VWS V14.01,2013-04-02 15:45:00,
2013-04-02 10:51:00,41.2,22.0,30.36,East,82,0.0,5.0,46,0.00,,---,0.00,VWS V14.01,2013-04-02 15:51:00,
2013-04-02 10:57:00,41.6,23.9,30.37,East,82,0.0,5.0,49,0.00,,---,0.00,VWS V14.01,2013-04-02 15:57:00,
2013-04-02 11:03:00,42.2,23.9,30.36,NE,53,0.0,4.0,48,0.00,,---,0.00,VWS V14.01,2013-04-02 16:03:00,
2013-04-02 11:10:00,43.1,24.3,30.36,North,9,1.0,4.0,47,0.00,,---,0.00,VWS V14.01,2013-04-02 16:10:00,
2013-04-02 11:18:00,43.7,24.3,30.36,WSW,238,0.0,4.0,46,0.00,,---,0.00,VWS V14.01,2013-04-02 16:18:00,
2013-04-02 11:24:00,43.8,25.4,30.36,WSW,238,0.0,4.0,48,0.00,,---,0.00,VWS V14.01,2013-04-02 16:24:00,
2013-04-02 11:30:00,43.9,25.5,30.36,SW,225,0.0,4.0,48,0.00,,---,0.00,VWS V14.01,2013-04-02 16:30:00,
2013-04-02 11:36:00,44.0,25.1,30.36,SW,225,1.0,4.0,47,0.00,,---,0.00,VWS V14.01,2013-04-02 16:36:00,
2013-04-02 11:43:00,44.1,24.7,30.36,SW,225,1.0,4.0,46,0.00,,---,0.00,VWS V14.01,2013-04-02 16:43:00,
2013-04-02 11:49:00,44.2,26.3,30.36,SW,225,2.0,4.0,49,0.00,,---,0.00,VWS V14.01,2013-04-02 16:49:00,
2013-04-02 11:55:00,44.3,25.4,30.35,ESE,103,0.0,4.0,47,0.00,,---,0.00,VWS V14.01,2013-04-02 16:55:00,
2013-04-02 12:01:00,44.5,26.5,30.35,ESE,110,3.0,7.0,49,0.00,,---,0.00,VWS V14.01,2013-04-02 17:01:00,
2013-04-02 12:06:00,44.9,26.9,30.35,ESE,110,1.0,3.0,49,0.00,,---,0.00,VWS V14.01,2013-04-02 17:06:00,
2013-04-02 12:12:00,45.4,24.8,30.35,ESE,110,0.0,3.0,44,0.00,,---,0.00,VWS V14.01,2013-04-02 17:12:00,
2013-04-02 12:18:00,46.2,27.1,30.35,ESE,111,1.0,3.0,47,0.00,,---,0.00,VWS V14.01,2013-04-02 17:18:00,
2013-04-02 12:24:00,47.3,27.6,30.34,SSW,195,0.0,3.0,46,0.00,,---,0.00,VWS V14.01,2013-04-02 17:24:00,
2013-04-02 12:30:00,47.7,27.4,30.34,SSW,195,1.0,3.0,45,0.00,,---,0.00,VWS V14.01,2013-04-02 17:30:00,
2013-04-02 12:38:00,47.7,26.3,30.34,SSW,195,0.0,2.0,43,0.00,,---,0.00,VWS V14.01,2013-04-02 17:38:00,
2013-04-02 12:44:00,47.4,25.5,30.34,SW,225,0.0,5.0,42,0.00,,---,0.00,VWS V14.01,2013-04-02 17:44:00,
2013-04-02 12:51:00,47.1,26.9,30.34,WSW,243,3.0,5.0,45,0.00,,---,0.00,VWS V14.01,2013-04-02 17:51:00,
2013-04-02 12:57:00,46.9,26.7,30.33,WSW,243,0.0,5.0,45,0.00,,---,0.00,VWS V14.01,2013-04-02 17:57:00,
2013-04-02 13:03:00,46.6,26.4,30.33,WSW,243,0.0,2.0,45,0.00,,---,0.00,VWS V14.01,2013-04-02 18:03:00,
2013-04-02 13:09:00,46.4,25.7,30.33,WSW,242,2.0,2.0,44,0.00,,---,0.00,VWS V14.01,2013-04-02 18:09:00,
2013-04-02 13:18:00,45.7,26.6,30.33,WSW,242,0.0,3.0,47,0.00,,---,0.00,VWS V14.01,2013-04-02 18:18:00,
2013-04-02 13:24:00,45.9,25.8,30.33,WSW,243,0.0,3.0,45,0.00,,---,0.00,VWS V14.01,2013-04-02 18:24:00,
2013-04-02 13:30:00,45.5,24.9,30.32,WSW,243,0.0,3.0,44,0.00,,---,0.00,VWS V14.01,2013-04-02 18:30:00,
2013-04-02 13:38:00,45.9,26.3,30.32,SSE,162,0.0,3.0,46,0.00,,---,0.00,VWS V14.01,2013-04-02 18:38:00,
2013-04-02 13:44:00,47.3,27.6,30.32,WSW,243,3.0,5.0,46,0.00,,---,0.00,VWS V14.01,2013-04-02 18:44:00,
2013-04-02 13:50:00,47.9,27.6,30.32,SSW,192,1.0,5.0,45,0.00,,---,0.00,VWS V14.01,2013-04-02 18:50:00,
2013-04-02 13:57:00,48.3,28.5,30.31,South,188,0.0,5.0,46,0.00,,---,0.00,VWS V14.01,2013-04-02 18:57:00,
2013-04-02 14:03:00,49.3,29.4,30.31,WNW,294,8.0,9.0,46,0.00,,---,0.00,VWS V14.01,2013-04-02 19:03:00,
2013-04-02 14:09:00,51.0,29.9,30.31,WNW,292,1.0,9.0,44,0.00,,---,0.00,VWS V14.01,2013-04-02 19:09:00,
2013-04-02 14:15:00,50.8,28.0,30.31,West,260,3.0,9.0,41,0.00,,---,0.00,VWS V14.01,2013-04-02 19:15:00,
2013-04-02 14:21:00,50.1,26.7,30.31,South,180,0.0,9.0,40,0.00,,---,0.00,VWS V14.01,2013-04-02 19:21:00,
2013-04-02 14:27:00,50.1,27.9,30.30,East,99,2.0,9.0,42,0.00,,---,0.00,VWS V14.01,2013-04-02 19:27:00,
2013-04-02 14:34:00,50.1,28.5,30.30,NNW,329,2.0,7.0,43,0.00,,---,0.00,VWS V14.01,2013-04-02 19:34:00,
2013-04-02 14:40:00,49.8,28.2,30.30,NNE,27,8.0,8.0,43,0.00,,---,0.00,VWS V14.01,2013-04-02 19:40:00,
2013-04-02 14:48:00,49.3,29.9,30.30,WNW,295,4.0,8.0,47,0.00,,---,0.00,VWS V14.01,2013-04-02 19:48:00,
2013-04-02 14:54:00,51.7,31.1,30.30,WNW,291,3.0,8.0,45,0.00,,---,0.00,VWS V14.01,2013-04-02 19:54:00,
2013-04-02 15:00:00,53.0,29.3,30.30,WNW,283,1.0,8.0,40,0.00,,---,0.00,VWS V14.01,2013-04-02 20:00:00,
2013-04-02 15:06:00,52.7,28.5,30.30,WNW,283,0.0,3.0,39,0.00,,---,0.00,VWS V14.01,2013-04-02 20:06:00,
2013-04-02 15:13:00,51.8,29.5,30.30,NW,315,1.0,7.0,42,0.00,,---,0.00,VWS V14.01,2013-04-02 20:13:00,
2013-04-02 15:19:00,51.0,28.1,30.29,NNE,25,4.0,7.0,41,0.00,,---,0.00,VWS V14.01,2013-04-02 20:19:00,
2013-04-02 15:25:00,50.0,27.2,30.29,NE,52,0.0,7.0,41,0.00,,---,0.00,VWS V14.01,2013-04-02 20:25:00,
2013-04-02 15:33:00,50.1,29.0,30.29,North,355,9.0,9.0,44,0.00,,---,0.00,VWS V14.01,2013-04-02 20:33:00,
2013-04-02 15:39:00,49.9,28.3,30.29,NNE,13,6.0,9.0,43,0.00,,---,0.00,VWS V14.01,2013-04-02 20:39:00,
2013-04-02 15:45:00,49.5,27.4,30.28,ESE,107,5.0,9.0,42,0.00,,---,0.00,VWS V14.01,2013-04-02 20:45:00,
2013-04-02 15:52:00,49.4,27.3,30.28,NNE,30,2.0,10.0,42,0.00,,---,0.00,VWS V14.01,2013-04-02 20:52:00,
2013-04-02 16:00:00,49.5,28.0,30.28,ESE,105,2.0,10.0,43,0.00,,---,0.00,VWS V14.01,2013-04-02 21:00:00,
2013-04-02 16:06:00,49.7,28.1,30.28,NNE,22,0.0,5.0,43,0.00,,---,0.00,VWS V14.01,2013-04-02 21:06:00,
2013-04-02 16:12:00,50.2,28.0,30.28,North,355,5.0,10.0,42,0.00,,---,0.00,VWS V14.01,2013-04-02 21:12:00,
2013-04-02 16:18:00,50.3,27.5,30.28,NW,311,6.0,10.0,41,0.00,,---,0.00,VWS V14.01,2013-04-02 21:18:00,
2013-04-02 16:24:00,50.8,29.1,30.28,NW,310,3.0,10.0,43,0.00,,---,0.00,VWS V14.01,2013-04-02 21:24:00,
2013-04-02 16:30:00,51.5,28.0,30.27,NW,311,0.0,10.0,40,0.00,,---,0.00,VWS V14.01,2013-04-02 21:30:00,
2013-04-02 16:37:00,51.7,29.4,30.27,NNE,21,0.0,4.0,42,0.00,,---,0.00,VWS V14.01,2013-04-02 21:37:00,
2013-04-02 16:43:00,52.3,30.5,30.27,WNW,302,0.0,6.0,43,0.00,,---,0.00,VWS V14.01,2013-04-02 21:43:00,
2013-04-02 16:49:00,52.9,28.6,30.27,WNW,289,0.0,6.0,39,0.00,,---,0.00,VWS V14.01,2013-04-02 21:49:00,
2013-04-02 16:55:00,52.8,27.9,30.27,WNW,288,0.0,6.0,38,0.00,,---,0.00,VWS V14.01,2013-04-02 21:55:00,
2013-04-02 17:01:00,52.2,27.4,30.27,WSW,248,0.0,6.0,38,0.00,,---,0.00,VWS V14.01,2013-04-02 22:01:00,
2013-04-02 17:07:00,51.1,28.2,30.27,NNE,16,5.0,7.0,41,0.00,,---,0.00,VWS V14.01,2013-04-02 22:07:00,
2013-04-02 17:14:00,50.3,26.9,30.27,NNE,15,0.0,7.0,40,0.00,,---,0.00,VWS V14.01,2013-04-02 22:14:00,
2013-04-02 17:20:00,49.7,27.0,30.27,NNE,14,0.0,7.0,41,0.00,,---,0.00,VWS V14.01,2013-04-02 22:20:00,
2013-04-02 17:28:00,49.7,27.6,30.27,NNE,12,4.0,7.0,42,0.00,,---,0.00,VWS V14.01,2013-04-02 22:28:00,
2013-04-02 17:34:00,50.0,27.8,30.27,NNW,345,0.0,5.0,42,0.00,,---,0.00,VWS V14.01,2013-04-02 22:34:00,
2013-04-02 17:40:00,50.6,28.4,30.26,NNW,345,0.0,5.0,42,0.00,,---,0.00,VWS V14.01,2013-04-02 22:40:00,
2013-04-02 17:46:00,51.2,28.9,30.27,NNW,338,4.0,5.0,42,0.00,,---,0.00,VWS V14.01,2013-04-02 22:46:00,
2013-04-02 17:52:00,51.2,28.3,30.27,NW,317,0.0,6.0,41,0.00,,---,0.00,VWS V14.01,2013-04-02 22:52:00,
2013-04-02 17:59:00,51.0,28.7,30.26,NW,311,3.0,6.0,42,0.00,,---,0.00,VWS V14.01,2013-04-02 22:59:00,
2013-04-02 18:05:00,50.7,27.9,30.26,NW,311,1.0,6.0,41,0.00,,---,0.00,VWS V14.01,2013-04-02 23:05:00,
2013-04-02 18:13:00,50.3,27.5,30.27,NNW,330,0.0,6.0,41,0.00,,---,0.00,VWS V14.01,2013-04-02 23:13:00,
2013-04-02 18:19:00,49.9,27.1,30.27,NNW,331,0.0,6.0,41,0.00,,---,0.00,VWS V14.01,2013-04-02 23:19:00,
2013-04-02 18:25:00,49.6,27.5,30.27,NNW,330,0.0,6.0,42,0.00,,---,0.00,VWS V14.01,2013-04-02 23:25:00,
2013-04-02 18:30:00,49.5,27.4,30.27,NNW,327,1.0,6.0,42,0.00,,---,0.00,VWS V14.01,2013-04-02 23:30:00,
2013-04-02 18:38:00,49.4,28.4,30.26,NNW,327,0.0,1.0,44,0.00,,---,0.00,VWS V14.01,2013-04-02 23:38:00,
2013-04-02 18:44:00,49.2,27.1,30.26,NNW,328,0.0,1.0,42,0.00,,---,0.00,VWS V14.01,2013-04-02 23:44:00,
2013-04-02 18:50:00,49.1,27.0,30.26,NNW,329,2.0,2.0,42,0.00,,---,0.00,VWS V14.01,2013-04-02 23:50:00,
2013-04-02 18:58:00,48.8,27.3,30.26,NNW,329,0.0,2.0,43,0.00,,---,0.00,VWS V14.01,2013-04-02 23:58:00,
2013-04-02 19:07:00,48.7,27.2,30.26,NNW,329,0.0,0.0,43,0.00,,---,0.00,VWS V14.01,2013-04-03 00:07:00,
2013-04-02 19:13:00,48.5,27.0,30.27,NNW,329,0.0,0.0,43,0.00,,---,0.00,VWS V14.01,2013-04-03 00:13:00,
2013-04-02 19:19:00,48.3,26.3,30.26,NNW,329,0.0,0.0,42,0.00,,---,0.00,VWS V14.01,2013-04-03 00:19:00,
2013-04-02 19:25:00,48.1,26.7,30.26,ENE,59,0.0,2.0,43,0.00,,---,0.00,VWS V14.01,2013-04-03 00:25:00,
2013-04-02 19:31:00,48.0,27.1,30.26,ENE,59,0.0,2.0,44,0.00,,---,0.00,VWS V14.01,2013-04-03 00:31:00,
2013-04-02 19:37:00,47.7,26.9,30.26,ENE,59,0.0,0.0,44,0.00,,---,0.00,VWS V14.01,2013-04-03 00:37:00,
2013-04-02 19:43:00,47.3,26.5,30.26,ENE,61,0.0,0.0,44,0.00,,---,0.00,VWS V14.01,2013-04-03 00:43:00,
2013-04-02 19:50:00,46.9,26.1,30.26,ENE,61,0.0,0.0,44,0.00,,---,0.00,VWS V14.01,2013-04-03 00:50:00,
2013-04-02 19:58:00,46.5,26.3,30.26,ENE,61,0.0,0.0,45,0.00,,---,0.00,VWS V14.01,2013-04-03 00:58:00,
2013-04-02 20:04:00,46.3,26.1,30.26,ENE,61,0.0,0.0,45,0.00,,---,0.00,VWS V14.01,2013-04-03 01:04:00,
2013-04-02 20:10:00,45.9,26.3,30.26,ENE,61,0.0,0.0,46,0.00,,---,0.00,VWS V14.01,2013-04-03 01:10:00,
2013-04-02 20:16:00,45.6,26.0,30.26,ENE,61,0.0,0.0,46,0.00,,---,0.00,VWS V14.01,2013-04-03 01:16:00,
2013-04-02 20:22:00,45.2,26.2,30.26,ENE,61,0.0,0.0,47,0.00,,---,0.00,VWS V14.01,2013-04-03 01:22:00,
2013-04-02 20:28:00,45.0,26.0,30.26,East,86,3.0,3.0,47,0.00,,---,0.00,VWS V14.01,2013-04-03 01:28:00,
2013-04-02 20:34:00,44.8,25.8,30.26,East,86,1.0,2.0,47,0.00,,---,0.00,VWS V14.01,2013-04-03 01:34:00,
2013-04-02 20:40:00,44.6,26.1,30.26,East,92,0.0,3.0,48,0.00,,---,0.00,VWS V14.01,2013-04-03 01:40:00,
2013-04-02 20:47:00,44.2,26.3,30.26,ESE,103,0.0,5.0,49,0.00,,---,0.00,VWS V14.01,2013-04-03 01:47:00,
2013-04-02 20:53:00,43.8,25.9,30.26,ESE,104,3.0,5.0,49,0.00,,---,0.00,VWS V14.01,2013-04-03 01:53:00,
2013-04-02 20:59:00,43.4,26.0,30.27,ESE,105,0.0,5.0,50,0.00,,---,0.00,VWS V14.01,2013-04-03 01:59:00,
2013-04-02 21:05:00,42.9,25.6,30.27,ESE,105,0.0,4.0,50,0.00,,---,0.00,VWS V14.01,2013-04-03 02:05:00,
2013-04-02 21:11:00,42.6,25.3,30.27,ESE,107,3.0,4.0,50,0.00,,---,0.00,VWS V14.01,2013-04-03 02:11:00,
2013-04-02 21:17:00,42.6,25.3,30.27,ESE,107,2.0,4.0,50,0.00,,---,0.00,VWS V14.01,2013-04-03 02:17:00,
2013-04-02 21:26:00,42.3,25.0,30.27,ESE,107,1.0,4.0,50,0.00,,---,0.00,VWS V14.01,2013-04-03 02:26:00,
2013-04-02 21:32:00,42.1,25.3,30.28,ESE,107,2.0,2.0,51,0.00,,---,0.00,VWS V14.01,2013-04-03 02:32:00,
2013-04-02 21:38:00,42.0,25.2,30.28,ESE,107,1.0,3.0,51,0.00,,---,0.00,VWS V14.01,2013-04-03 02:38:00,
2013-04-02 21:44:00,41.8,25.0,30.28,ESE,107,1.0,3.0,51,0.00,,---,0.00,VWS V14.01,2013-04-03 02:44:00,
2013-04-02 21:50:00,41.7,24.9,30.28,ESE,107,1.0,4.0,51,0.00,,---,0.00,VWS V14.01,2013-04-03 02:50:00,
2013-04-02 21:56:00,41.5,25.2,30.28,ESE,111,2.0,4.0,52,0.00,,---,0.00,VWS V14.01,2013-04-03 02:56:00,
2013-04-02 22:02:00,41.2,24.9,30.28,ESE,112,1.0,2.0,52,0.00,,---,0.00,VWS V14.01,2013-04-03 03:02:00,
2013-04-02 22:08:00,40.3,25.0,30.29,ESE,112,0.0,2.0,54,0.00,,---,0.00,VWS V14.01,2013-04-03 03:08:00,
2013-04-02 22:15:00,39.5,24.7,30.29,ESE,112,0.0,3.0,55,0.00,,---,0.00,VWS V14.01,2013-04-03 03:15:00,
2013-04-02 22:21:00,39.7,24.4,30.29,ESE,112,1.0,3.0,54,0.00,,---,0.00,VWS V14.01,2013-04-03 03:21:00,
2013-04-02 22:27:00,39.9,24.6,30.29,ESE,112,0.0,3.0,54,0.00,,---,0.00,VWS V14.01,2013-04-03 03:27:00,
2013-04-02 22:35:00,39.6,24.3,30.30,East,88,0.0,3.0,54,0.00,,---,0.00,VWS V14.01,2013-04-03 03:35:00,
2013-04-02 22:41:00,39.5,24.7,30.30,ESE,113,1.0,6.0,55,0.00,,---,0.00,VWS V14.01,2013-04-03 03:41:00,
2013-04-02 22:47:00,39.3,24.5,30.30,East,101,3.0,6.0,55,0.00,,---,0.00,VWS V14.01,2013-04-03 03:47:00,
2013-04-02 22:53:00,39.3,24.5,30.30,East,94,6.0,7.0,55,0.00,,---,0.00,VWS V14.01,2013-04-03 03:53:00,
2013-04-02 22:59:00,39.3,24.1,30.30,ESE,114,3.0,7.0,54,0.00,,---,0.00,VWS V14.01,2013-04-03 03:59:00,
2013-04-02 23:01:00,39.3,24.1,30.30,ESE,105,3.0,7.0,54,0.00,,---,0.00,VWS V14.01,2013-04-03 04:01:00,
2013-04-02 23:03:00,39.1,24.3,30.30,East,91,5.0,7.0,55,0.00,,---,0.00,VWS V14.01,2013-04-03 04:03:00,
2013-04-02 23:05:00,39.1,24.3,30.30,East,95,3.0,7.0,55,0.00,,---,0.00,VWS V14.01,2013-04-03 04:05:00,
2013-04-02 23:09:00,38.9,24.1,30.30,East,89,3.0,7.0,55,0.00,,---,0.00,VWS V14.01,2013-04-03 04:09:00,
2013-04-02 23:16:00,38.6,23.8,30.30,ESE,114,4.0,7.0,55,0.00,,---,0.00,VWS V14.01,2013-04-03 04:16:00,
2013-04-02 23:22:00,38.4,23.7,30.30,East,92,5.0,7.0,55,0.00,,---,0.00,VWS V14.01,2013-04-03 04:22:00,
2013-04-02 23:28:00,38.3,23.6,30.30,ESE,115,5.0,8.0,55,0.00,,---,0.00,VWS V14.01,2013-04-03 04:28:00,
2013-04-02 23:34:00,38.0,23.3,30.30,SE,125,7.0,7.0,55,0.00,,---,0.00,VWS V14.01,2013-04-03 04:34:00,
2013-04-02 23:40:00,37.9,23.6,30.30,East,94,6.0,8.0,56,0.00,,---,0.00,VWS V14.01,2013-04-03 04:40:00,
2013-04-02 23:46:00,37.5,23.2,30.30,ESE,112,5.0,8.0,56,0.00,,---,0.00,VWS V14.01,2013-04-03 04:46:00,
2013-04-02 23:52:00,37.3,23.5,30.30,East,94,6.0,8.0,57,0.00,,---,0.00,VWS V14.01,2013-04-03 04:52:00,
2013-04-02 23:58:00,37.0,23.2,30.30,East,94,8.0,8.0,57,0.00,,---,0.00,VWS V14.01,2013-04-03 04:58:00,